Station: Salmon Gums Rs  

  Atmospheric Gas Attenuation - ITU Rec 676-11   ----------------- dB/100km -----------------
Date Time Temp RH % AH g/m3 Dew Point Wind Direction Speed kph Gust kph Barometer mB Rainfall Since 9am 24GHz 47GHz 76GHz 122GHz 134GHz 241GHz
08/05 09:30 14.7 63 7.93 7.7 19 28 1013.1 0 18.1 24.6 36.7 96.2 88.6 304.4
08/05 09:20 14.7 68 8.56 9 13 17 1013.1 0 19.5 25.6 39.2 102.8 96.7 332.8
08/05 09:10 13.9 72 8.63 8.9 13 15 1013.1 0 19.6 25.9 39.9 104.6 98.7 339.4
08/05 09:00 13.2 75 8.61 8.9 13 20 1013.1 0 19.6 26.1 40.1 105.3 99.3 341.5
08/05 08:50 12.7 80 8.91 9.3 11 13 1013.1 0 20.3 26.7 41.6 109.3 104.0 357.9
08/05 08:40 11.9 82 8.69 8.9 17 19 1013.1 0 19.9 26.6 41.1 108.0 102.1 351.0
08/05 08:30 11.3 83 8.47 8.5 15 19 1013.1 0 19.4 26.4 40.5 106.4 99.8 343.2
08/05 08:20 11.2 90 9.12 9.7 13 15 1013.1 0 20.8 27.5 43.3 113.8 108.9 375.0
08/05 08:10 10.4 96 9.25 9.8 9 15 1013.1 0 21.2 28.0 44.3 116.5 111.9 385.4
08/05 08:00 9.7 99 9.13 9.6 2 6 1013.1 0 20.9 28.0 44.2 116.1 111.3 382.9
08/05 07:50 9 100 8.82 9 2 4 1013.1 0 20.3 27.7 43.2 113.6 107.8 370.9
08/05 07:40 8.7 100 8.65 8.7 2 2 1013.1 0 19.9 27.5 42.7 112.1 105.8 363.8
08/05 07:30 7.9 100 8.22 7.9 4 6 1013.1 0 19.1 27.0 41.2 108.3 100.8 346.2
08/05 07:20 6.8 100 7.65 6.8 6 6 1013.1 0 17.9 26.4 39.4 103.3 94.2 322.9
08/05 07:10 6.6 100 7.55 6.6 4 4 1013.1 0 17.7 26.3 39.0 102.4 93.0 318.8
08/05 07:00 6.1 100 7.31 6.1 4 6 1013.1 0 17.2 26.0 38.3 100.3 90.3 309.0
08/05 06:50 6.1 99 7.24 5.9 4 6 1013.1 0 17.0 25.9 38.0 99.5 89.3 305.6
08/05 06:40 6.3 100 7.41 6.3 4 6 1013.1 0 17.4 26.1 38.6 101.2 91.4 313.1
08/05 06:30 6.5 100 7.5 6.5 6 7 1013.1 0 17.6 26.2 38.9 101.9 92.5 316.7
08/05 06:20 6 100 7.26 6 6 7 1013.1 0 17.1 25.9 38.1 99.9 89.7 307.0
08/05 06:10 3.7 99 6.17 3.5 6 6 1013.1 0 14.8 24.8 34.6 90.4 77.1 262.4
08/05 06:00 3.8 98 6.15 3.5 4 6 1013.1 0 14.8 24.7 34.4 90.1 76.7 261.1
08/05 05:50 4.6 99 6.56 4.4 4 6 1013.1 0 15.6 25.2 35.8 93.7 81.5 278.1
08/05 05:40 4.3 99 6.43 4.1 0 4 1013.1 0 15.3 25.0 35.4 92.6 80.0 272.9
08/05 05:30 4.5 99 6.51 4.4 0 0 1013.1 0 15.5 25.1 35.6 93.3 80.9 276.1
08/05 05:20 4.8 99 6.64 4.6 0 0 1013.1 0 15.8 25.2 36.1 94.4 82.4 281.3
08/05 05:10 4.9 98 6.62 4.6 0 0 1013.1 0 15.7 25.2 35.9 94.0 82.0 280.0
08/05 05:00 5.3 99 6.87 5.2 4 4 1013.1 0 16.3 25.5 36.8 96.3 85.1 290.6
08/05 04:50 5.3 98 6.8 5 4 4 1013.1 0 16.1 25.4 36.5 95.6 84.1 287.2
08/05 04:40 5.4 98 6.84 5.1 4 4 1013.1 0 16.2 25.4 36.6 95.9 84.5 288.8
08/05 04:30 5.8 98 7.02 5.5 2 4 1013.1 0 16.6 25.6 37.2 97.4 86.6 296.0
08/05 04:20 5.5 97 6.82 5 2 4 1013.1 0 16.1 25.3 36.5 95.5 84.2 287.5
08/05 04:10 5.3 96 6.66 4.7 4 6 1013.1 0 15.8 25.1 35.9 94.0 82.2 280.5
08/05 04:00 5.6 96 6.79 5 4 4 1013.1 0 16.1 25.3 36.3 95.1 83.6 285.6
08/05 03:50 6.2 96 7.06 5.6 4 4 1013.1 0 16.6 25.5 37.2 97.4 86.7 296.5
08/05 03:40 7.1 96 7.49 6.5 4 4 1013.1 0 17.5 26.0 38.5 101.0 91.6 313.8
08/05 03:30 7 95 7.36 6.3 2 4 1013.1 0 17.2 25.8 38.0 99.7 89.9 307.9
08/05 03:20 7.3 95 7.51 6.5 4 4 1013.1 0 17.5 26.0 38.5 101.0 91.6 314.0
08/05 03:10 8.3 95 8.01 7.5 6 7 1013.1 0 18.6 26.5 40.1 105.3 97.4 334.1
08/05 03:00 8.6 96 8.25 8 7 11 1013.1 0 19.1 26.9 41.0 107.6 100.3 344.6
08/05 02:50 8.6 95 8.17 7.8 7 9 1013.1 0 18.9 26.7 40.7 106.7 99.2 340.6
08/05 02:40 8.7 95 8.22 7.9 4 4 1013.1 0 19.0 26.8 40.8 107.1 99.8 342.6
08/05 02:30 9.1 95 8.43 8.3 4 7 1013.1 0 19.5 27.0 41.5 109.0 102.2 351.1
08/05 02:20 9.6 96 8.8 9 6 6 1013.1 0 20.2 27.5 42.8 112.5 106.7 367.0
08/05 02:10 9.6 97 8.89 9.1 6 7 1013.1 0 20.4 27.6 43.2 113.5 108.0 371.5
08/05 02:00 9.4 97 8.78 8.9 6 9 1013.1 0 20.2 27.5 42.8 112.5 106.7 367.0
08/05 01:50 9.3 98 8.81 9 7 7 1013.1 0 20.3 27.6 43.0 113.0 107.3 368.9
08/05 01:40 9.1 98 8.7 8.8 7 7 1013.1 0 20.0 27.5 42.7 112.1 106.0 364.4
08/05 01:30 8.2 99 8.29 8.1 7 9 1013.1 0 19.2 27.0 41.4 108.6 101.4 348.3
08/05 01:20 8 98 8.11 7.7 7 7 1013.1 0 18.8 26.8 40.7 106.9 99.2 340.3
08/05 01:10 7.7 98 7.95 7.4 9 11 1013.1 0 18.5 26.6 40.2 105.5 97.3 333.8
08/05 01:00 7.7 99 8.03 7.6 6 9 1013.1 0 18.7 26.8 40.5 106.4 98.4 337.7
08/05 00:50 7.7 98 7.95 7.4 6 6 1013.1 0 18.5 26.6 40.2 105.5 97.3 333.8
08/05 00:40 7.6 99 7.98 7.4 7 7 1013.1 0 18.6 26.7 40.4 105.9 97.8 335.7
08/05 00:30 7.7 99 8.03 7.6 7 11 1013.1 0 18.7 26.8 40.5 106.4 98.4 337.7
08/05 00:20 7.5 98 7.85 7.2 9 9 1013.1 0 18.3 26.5 39.9 104.6 96.1 329.7
08/05 00:10 7.5 98 7.85 7.2 9 9 1013.1 0 18.3 26.5 39.9 104.6 96.1 329.7
08/05 00:00 8.1 98 8.16 7.8 7 9 1013.1 0 18.9 26.9 40.9 107.3 99.7 342.4
07/05 23:50 7.9 98 8.05 7.6 7 7 1013.1 0 18.7 26.7 40.5 106.3 98.4 337.8
07/05 23:40 8.4 98 8.32 8.1 6 7 1013.1 0 19.2 27.0 41.4 108.7 101.6 348.9
07/05 23:30 8.7 98 8.48 8.4 6 7 1013.1 0 19.6 27.2 41.9 110.1 103.4 355.4
07/05 23:20 8.6 97 8.34 8.1 6 6 1013.1 0 19.3 27.0 41.4 108.7 101.6 349.0
07/05 23:10 8.7 97 8.39 8.2 6 7 1013.1 0 19.4 27.1 41.6 109.1 102.2 351.0
07/05 23:00 8.9 96 8.41 8.3 6 7 1013.1 0 19.4 27.0 41.5 109.0 102.2 351.1
07/05 22:50 9 95 8.38 8.2 6 7 1013.1 0 19.4 27.0 41.3 108.5 101.6 349.1
07/05 22:40 9.4 95 8.59 8.6 7 9 1013.1 0 19.8 27.2 42.0 110.4 104.0 357.6
07/05 22:30 9.3 95 8.54 8.5 7 11 1013.1 0 19.7 27.1 41.9 109.9 103.5 355.6
07/05 22:20 9.6 93 8.52 8.6 9 11 1013.1 0 19.6 27.0 41.6 109.3 102.8 353.3
07/05 22:10 9.7 93 8.58 8.7 9 9 1013.1 0 19.7 27.1 41.8 109.8 103.5 355.7
07/05 22:00 9.6 93 8.52 8.5 9 13 1013.1 0 19.6 27.0 41.6 109.3 102.8 353.3
07/05 21:50 9.9 93 8.69 8.8 11 11 1013.1 0 20.0 27.2 42.2 110.8 104.8 360.2
07/05 21:40 9.8 92 8.54 8.5 9 11 1013.1 0 19.7 27.0 41.6 109.2 102.8 353.3
07/05 21:30 10.1 91 8.61 8.7 9 11 1013.1 0 19.8 27.0 41.7 109.6 103.4 355.4
07/05 21:20 10.5 90 8.73 8.9 9 9 1013.1 0 20.0 27.1 42.0 110.4 104.5 359.4
07/05 21:10 10.4 91 8.77 9 11 15 1013.1 0 20.1 27.2 42.3 111.0 105.2 361.8
07/05 21:00 9.9 94 8.78 9 9 17 1013.1 0 20.2 27.4 42.6 111.8 106.0 364.6
07/05 20:50 9.1 92 8.17 7.8 7 7 1013.1 0 18.9 26.6 40.4 106.0 98.6 338.4
07/05 20:40 9.3 91 8.18 7.9 6 7 1013.1 0 18.9 26.5 40.3 105.9 98.5 338.1
07/05 20:30 9.3 90 8.09 7.7 6 7 1013.1 0 18.7 26.4 40.0 104.9 97.2 333.7
07/05 20:20 9.6 88 8.06 7.8 6 6 1013.1 0 18.6 26.2 39.7 104.1 96.4 331.0
07/05 20:10 9.7 87 8.02 7.6 6 6 1013.1 0 18.5 26.1 39.5 103.6 95.7 328.6
07/05 20:00 10.2 87 8.28 8.1 7 11 1013.1 0 19.1 26.4 40.3 105.8 98.7 339.0
07/05 19:50 10.4 88 8.48 8.5 7 9 1013.1 0 19.5 26.7 41.0 107.7 101.2 347.7
07/05 19:40 10.4 87 8.39 8.3 4 4 1013.1 0 19.3 26.5 40.7 106.7 99.9 343.4
07/05 19:30 10.7 85 8.35 8.3 6 7 1013.1 0 19.2 26.4 40.3 105.9 99.0 340.1
07/05 19:20 11.1 84 8.46 8.6 7 7 1013.1 0 19.4 26.5 40.6 106.5 100.0 343.6
07/05 19:10 11.5 84 8.68 8.9 7 7 1013.1 0 19.9 26.7 41.3 108.4 102.5 352.4
07/05 19:00 11.9 82 8.69 8.9 7 13 1013.1 0 19.9 26.6 41.1 108.0 102.1 351.0
07/05 18:50 12.5 81 8.91 9.3 9 11 1013.1 0 20.3 26.8 41.7 109.6 104.2 358.8
07/05 18:40 12.9 81 9.13 9.7 9 11 1013.1 0 20.8 27.0 42.4 111.4 106.7 367.4
07/05 18:30 13.2 79 9.07 9.6 9 13 1013.1 0 20.6 26.8 42.0 110.4 105.5 363.1
07/05 18:20 13.7 77 9.12 9.7 9 11 1013.1 0 20.7 26.8 42.0 110.2 105.5 363.2
07/05 18:10 14.2 76 9.28 10 13 13 1013.1 0 21.0 26.9 42.3 111.2 106.9 368.4
07/05 18:00 14.4 76 9.39 10.2 11 15 1013.1 0 21.2 27.0 42.7 112.2 108.1 372.6
07/05 17:50 14.6 74 9.26 10 11 13 1013.1 0 21.0 26.7 42.0 110.5 106.1 365.6
07/05 17:40 14.7 75 9.44 10.3 17 19 1013.1 0 21.3 27.0 42.7 112.3 108.4 373.5
07/05 17:30 14.9 73 9.3 10.1 13 17 1013.1 0 21.0 26.7 42.0 110.5 106.2 366.0
07/05 17:20 15 73 9.36 10.2 11 17 1013.1 0 21.2 26.8 42.2 111.0 106.9 368.4
07/05 17:10 15.3 70 9.14 10 11 11 1013.1 0 20.7 26.3 41.2 108.2 103.6 356.8
07/05 17:00 15.6 69 9.18 9.9 11 17 1013.1 0 20.7 26.3 41.2 108.2 103.7 357.2

Last Refresh: 08-May-2026 11:05:15

Bureau of Meteorology